Time;durP1;ratioP1;P1;durP2;ratioP2;P2;SDS_P1;SDS_P2;PMS_P1;PMS_P2;Temp;Humidity;BMP_temperature;BMP_pressure;BME280_temperature;BME280_humidity;BME280_pressure;Samples;Min_cycle;Max_cycle;Signal;HPM_P1;HPM_P2
2021/01/31 00:00:44;;;;;;;3.83;3.22;;;3.80;99.90;;;;;;5116531;28;20254;-85
2021/01/31 00:03:13;;;;;;;4.63;3.72;;;3.90;99.90;;;;;;5116300;28;20261;-86
2021/01/31 00:05:40;;;;;;;3.80;2.90;;;3.80;99.90;;;;;;5115083;28;20208;-85
2021/01/31 00:08:08;;;;;;;4.82;4.00;;;3.80;99.90;;;;;;5116588;28;20252;-86
2021/01/31 00:10:35;;;;;;;6.18;3.97;;;3.80;99.90;;;;;;5116417;28;20254;-87
2021/01/31 00:13:03;;;;;;;4.53;3.95;;;3.70;99.90;;;;;;5116708;28;20259;-84
2021/01/31 00:15:31;;;;;;;4.97;4.35;;;3.80;99.90;;;;;;5116249;28;20283;-85
2021/01/31 00:17:58;;;;;;;5.93;4.35;;;3.70;99.90;;;;;;5116073;28;20350;-85
2021/01/31 00:20:26;;;;;;;4.30;3.90;;;3.70;99.90;;;;;;5114896;28;20206;-86
2021/01/31 00:22:53;;;;;;;5.45;4.05;;;3.70;99.90;;;;;;5116421;28;20204;-89
2021/01/31 00:25:20;;;;;;;6.43;4.75;;;3.80;99.90;;;;;;5116455;28;20318;-86
2021/01/31 00:27:49;;;;;;;4.65;3.85;;;3.80;99.90;;;;;;5110748;28;20290;-89
2021/01/31 00:30:20;;;;;;;5.63;4.63;;;3.70;99.90;;;;;;5113021;28;20336;-86
2021/01/31 00:32:47;;;;;;;5.25;4.72;;;3.70;99.90;;;;;;5116223;28;20761;-85
2021/01/31 00:35:14;;;;;;;5.05;4.55;;;3.70;99.90;;;;;;5114718;28;20210;-84
2021/01/31 00:37:41;;;;;;;5.60;4.30;;;3.70;99.90;;;;;;5115082;28;20287;-84
2021/01/31 00:40:09;;;;;;;5.20;4.60;;;3.70;99.90;;;;;;5115427;28;20730;-88
2021/01/31 00:42:36;;;;;;;6.70;5.53;;;3.70;99.90;;;;;;5115537;28;20295;-87
2021/01/31 00:45:05;;;;;;;6.97;5.70;;;3.70;99.90;;;;;;5115676;28;20888;-85
2021/01/31 00:47:32;;;;;;;9.15;4.80;;;3.60;99.90;;;;;;5115383;28;20313;-84
2021/01/31 00:49:58;;;;;;;6.10;4.60;;;3.70;99.90;;;;;;5114452;28;20218;-85
2021/01/31 00:52:25;;;;;;;6.65;4.80;;;3.70;99.90;;;;;;5115039;28;20200;-84
2021/01/31 00:54:51;;;;;;;6.63;5.10;;;3.60;99.90;;;;;;5115059;28;20759;-85
2021/01/31 00:57:17;;;;;;;6.68;5.55;;;3.60;99.90;;;;;;5115414;28;20204;-85
2021/01/31 00:59:45;;;;;;;6.72;4.85;;;3.60;99.90;;;;;;5115776;28;20643;-87
2021/01/31 01:02:16;;;;;;;10.73;8.60;;;3.60;99.90;;;;;;5115895;28;20302;-85
2021/01/31 01:04:44;;;;;;;7.60;6.22;;;3.60;99.90;;;;;;5114399;28;20243;-84
2021/01/31 01:07:10;;;;;;;7.28;4.97;;;3.60;99.90;;;;;;5115584;28;20197;-84
2021/01/31 01:09:36;;;;;;;7.28;5.22;;;3.50;99.90;;;;;;5115171;28;20292;-87
2021/01/31 01:12:04;;;;;;;5.43;4.50;;;3.50;99.90;;;;;;5114759;28;20239;-85
2021/01/31 01:14:31;;;;;;;7.50;5.22;;;3.50;99.90;;;;;;5116331;28;20197;-85
2021/01/31 01:16:58;;;;;;;5.18;4.68;;;3.50;99.90;;;;;;5117773;28;20204;-90
2021/01/31 01:19:24;;;;;;;6.38;4.82;;;3.50;99.90;;;;;;5117773;28;20303;-86
2021/01/31 01:21:51;;;;;;;8.02;6.10;;;3.50;99.90;;;;;;5117404;28;20287;-89
2021/01/31 01:24:17;;;;;;;5.55;4.57;;;3.60;99.90;;;;;;5135064;28;20243;-84
2021/01/31 01:26:43;;;;;;;5.57;4.43;;;3.70;99.90;;;;;;5139983;28;20188;-85
2021/01/31 01:29:10;;;;;;;7.35;5.07;;;3.60;99.90;;;;;;5140683;27;20179;-86
2021/01/31 01:31:37;;;;;;;5.15;4.65;;;3.60;99.90;;;;;;5140767;28;20192;-86
2021/01/31 01:34:05;;;;;;;6.10;5.50;;;3.60;99.90;;;;;;5140226;28;20182;-90
2021/01/31 01:36:31;;;;;;;8.25;5.90;;;3.50;99.90;;;;;;5139311;28;20208;-86
2021/01/31 01:38:59;;;;;;;6.43;4.90;;;3.50;99.90;;;;;;5127332;28;20242;-86
2021/01/31 01:41:25;;;;;;;6.82;5.63;;;3.50;99.90;;;;;;5120909;28;20199;-86
2021/01/31 01:43:52;;;;;;;6.40;5.22;;;3.60;99.90;;;;;;5115593;28;20223;-86
2021/01/31 01:46:36;;;;;;;6.75;5.35;;;3.50;99.90;;;;;;5114763;28;20204;-85
2021/01/31 01:49:10;;;;;;;7.35;5.97;;;3.60;99.90;;;;;;5114476;28;20247;-84
2021/01/31 01:51:47;;;;;;;6.63;5.07;;;3.60;99.90;;;;;;5113302;28;20286;-85
2021/01/31 01:54:18;;;;;;;5.68;5.20;;;3.60;99.90;;;;;;5113452;28;20227;-87
2021/01/31 01:56:47;;;;;;;9.18;5.70;;;3.60;99.90;;;;;;5114580;28;20296;-88
2021/01/31 01:59:14;;;;;;;7.25;5.25;;;3.60;99.90;;;;;;5115091;28;20236;-87
2021/01/31 02:01:55;;;;;;;8.50;5.47;;;3.60;99.90;;;;;;5114200;28;20211;-87
2021/01/31 02:04:22;;;;;;;6.68;5.35;;;3.70;99.90;;;;;;5114077;28;20774;-85
2021/01/31 02:06:48;;;;;;;7.18;5.35;;;3.70;99.90;;;;;;5112923;28;20208;-85
2021/01/31 02:09:15;;;;;;;6.22;4.75;;;3.70;99.90;;;;;;5114349;28;20200;-85
2021/01/31 02:11:41;;;;;;;5.25;4.75;;;3.70;99.90;;;;;;5114477;28;20583;-88
2021/01/31 02:14:11;;;;;;;5.50;4.82;;;3.70;99.90;;;;;;5114569;28;20281;-89
2021/01/31 02:16:50;;;;;;;5.05;4.53;;;3.70;99.90;;;;;;5114661;28;20227;-88
2021/01/31 02:19:52;;;;;;;5.22;4.72;;;3.70;99.90;;;;;;5065136;28;20208;-86
2021/01/31 02:23:04;;;;;;;8.52;6.05;;;3.70;99.90;;;;;;5063915;28;20758;-88
2021/01/31 02:25:54;;;;;;;6.78;5.30;;;3.60;99.90;;;;;;5045925;28;20270;-87
2021/01/31 02:28:55;;;;;;;9.52;7.72;;;3.70;99.90;;;;;;5093457;28;20207;-87
2021/01/31 02:31:39;;;;;;;9.88;7.63;;;3.60;99.90;;;;;;5094282;28;20754;-86
2021/01/31 02:34:10;;;;;;;9.27;7.75;;;3.60;99.90;;;;;;5093893;28;20295;-86
2021/01/31 02:36:43;;;;;;;6.05;5.45;;;3.50;99.90;;;;;;5092409;28;20291;-86
2021/01/31 02:39:28;;;;;;;8.18;5.43;;;3.70;99.90;;;;;;5093535;28;20681;-88
2021/01/31 02:42:04;;;;;;;8.05;6.15;;;3.60;99.90;;;;;;5093104;28;20288;-86
2021/01/31 02:44:36;;;;;;;8.35;5.57;;;3.60;99.90;;;;;;5093287;28;20263;-86
2021/01/31 02:47:08;;;;;;;6.20;5.03;;;3.50;99.90;;;;;;5093625;28;20208;-91
2021/01/31 02:49:41;;;;;;;7.55;6.32;;;3.60;99.90;;;;;;5095992;28;20296;-91
2021/01/31 02:52:13;;;;;;;6.47;5.30;;;3.70;99.90;;;;;;5113806;28;20199;-89
2021/01/31 02:54:45;;;;;;;6.85;5.55;;;3.60;99.90;;;;;;5113556;28;20326;-87
2021/01/31 02:57:17;;;;;;;7.43;5.60;;;3.50;99.90;;;;;;5113306;28;20228;-87
2021/01/31 02:59:49;;;;;;;6.43;5.40;;;3.50;99.90;;;;;;5110119;28;20211;-85
2021/01/31 03:02:21;;;;;;;9.30;6.32;;;3.50;99.90;;;;;;5116422;28;20283;-85
2021/01/31 03:04:55;;;;;;;6.60;5.70;;;3.50;99.90;;;;;;5116545;28;20323;-93
2021/01/31 03:07:26;;;;;;;7.22;6.30;;;3.40;99.90;;;;;;5119097;28;20219;-86
2021/01/31 03:09:57;;;;;;;9.40;6.13;;;3.50;99.90;;;;;;5118270;28;20275;-91
2021/01/31 03:12:27;;;;;;;6.18;5.53;;;3.50;99.90;;;;;;5117386;28;20298;-86
2021/01/31 03:14:58;;;;;;;13.43;6.00;;;3.60;99.90;;;;;;5117482;28;20202;-87
2021/01/31 03:17:30;;;;;;;9.40;7.10;;;3.60;99.90;;;;;;5117854;28;20292;-86
2021/01/31 03:20:05;;;;;;;10.35;6.30;;;3.50;99.90;;;;;;5111215;28;20322;-85
2021/01/31 03:22:48;;;;;;;6.90;6.20;;;3.50;99.90;;;;;;5111504;28;20203;-91
2021/01/31 03:25:22;;;;;;;8.50;6.05;;;3.40;99.90;;;;;;5118449;28;20231;-89
2021/01/31 03:27:49;;;;;;;10.18;7.72;;;3.50;99.90;;;;;;5114818;28;20285;-87
2021/01/31 03:30:17;;;;;;;6.80;6.05;;;3.50;99.90;;;;;;5117508;28;20270;-87
2021/01/31 03:32:50;;;;;;;5.90;5.35;;;3.40;99.90;;;;;;5117025;28;20295;-85
2021/01/31 03:35:21;;;;;;;9.48;6.78;;;3.40;99.90;;;;;;5116198;28;20279;-86
2021/01/31 03:37:53;;;;;;;6.78;5.80;;;3.40;99.90;;;;;;5116921;28;20236;-86
2021/01/31 03:40:23;;;;;;;7.40;5.75;;;3.40;99.90;;;;;;5116861;28;20219;-85
2021/01/31 03:42:50;;;;;;;7.78;5.50;;;3.50;99.90;;;;;;5113358;28;20600;-87
2021/01/31 03:45:22;;;;;;;5.82;5.22;;;3.40;99.90;;;;;;5112140;28;20803;-87
2021/01/31 03:47:54;;;;;;;9.00;6.68;;;3.50;99.90;;;;;;5116986;28;20292;-85
2021/01/31 03:50:22;;;;;;;9.23;7.13;;;3.40;99.90;;;;;;5109781;28;20251;-88
2021/01/31 03:52:48;;;;;;;9.05;7.40;;;3.60;99.90;;;;;;5116521;28;20311;-86
2021/01/31 03:55:14;;;;;;;9.23;7.40;;;3.60;99.90;;;;;;5116789;28;20757;-86
2021/01/31 03:57:45;;;;;;;8.25;7.25;;;3.60;99.90;;;;;;5116288;28;20738;-86
2021/01/31 04:00:16;;;;;;;6.15;5.30;;;3.60;99.90;;;;;;5117029;28;20232;-90
2021/01/31 04:02:51;;;;;;;8.45;6.30;;;3.50;99.90;;;;;;5117496;28;20285;-87
2021/01/31 04:05:19;;;;;;;7.18;6.07;;;3.50;99.90;;;;;;5115537;28;20230;-87
2021/01/31 04:07:51;;;;;;;7.68;6.63;;;3.50;99.90;;;;;;5116524;28;20202;-87
2021/01/31 04:10:18;;;;;;;8.95;6.65;;;3.50;99.90;;;;;;5116677;28;20208;-86
2021/01/31 04:12:48;;;;;;;10.40;6.95;;;3.50;99.90;;;;;;5114914;28;20291;-86
2021/01/31 04:15:28;;;;;;;7.22;5.63;;;3.50;99.90;;;;;;5116379;28;20279;-87
2021/01/31 04:17:55;;;;;;;6.32;5.15;;;3.50;99.90;;;;;;5114658;28;20282;-89
2021/01/31 04:20:21;;;;;;;8.95;6.10;;;3.50;99.90;;;;;;5115194;28;20212;-91
2021/01/31 04:22:48;;;;;;;6.88;5.25;;;3.60;99.90;;;;;;5116370;28;20730;-87
2021/01/31 04:25:15;;;;;;;8.43;6.30;;;3.50;99.90;;;;;;5116310;28;20228;-87
2021/01/31 04:27:42;;;;;;;12.27;7.03;;;3.50;99.90;;;;;;5115991;28;20750;-87
2021/01/31 04:30:10;;;;;;;8.48;5.97;;;3.50;99.90;;;;;;5115871;28;20631;-89
2021/01/31 04:32:37;;;;;;;8.98;6.68;;;3.50;99.90;;;;;;5116136;28;20835;-83
2021/01/31 04:35:04;;;;;;;8.60;6.32;;;3.40;99.90;;;;;;5115564;28;20204;-92
2021/01/31 04:37:30;;;;;;;10.32;5.97;;;3.40;99.90;;;;;;5116633;28;20291;-88
2021/01/31 04:39:57;;;;;;;6.45;5.70;;;3.50;99.90;;;;;;5116090;28;20215;-87
2021/01/31 04:42:24;;;;;;;8.70;6.40;;;3.50;99.90;;;;;;5115623;28;20283;-89
2021/01/31 04:44:51;;;;;;;11.57;6.93;;;3.50;99.90;;;;;;5111294;28;20326;-86
2021/01/31 04:47:24;;;;;;;8.32;6.35;;;3.40;99.90;;;;;;5110463;28;20248;-87
2021/01/31 04:50:04;;;;;;;8.75;6.20;;;3.40;99.90;;;;;;5114456;28;20288;-88
2021/01/31 04:52:51;;;;;;;9.65;6.38;;;3.30;99.90;;;;;;5109478;28;20207;-87
2021/01/31 04:55:30;;;;;;;9.85;6.70;;;3.30;99.90;;;;;;5113626;28;20294;-88
2021/01/31 04:58:06;;;;;;;8.18;6.22;;;3.40;99.90;;;;;;5116145;28;20291;-88
2021/01/31 05:00:36;;;;;;;8.75;6.53;;;3.40;99.90;;;;;;5116006;28;20200;-88
2021/01/31 05:03:05;;;;;;;7.32;5.47;;;3.30;99.90;;;;;;5116050;28;20743;-87
2021/01/31 05:05:37;;;;;;;7.25;6.35;;;3.40;99.90;;;;;;5114131;28;20296;-86
2021/01/31 05:08:06;;;;;;;9.93;7.15;;;3.40;99.90;;;;;;5112865;28;20208;-86
2021/01/31 05:10:34;;;;;;;6.97;6.28;;;3.30;99.90;;;;;;5114912;28;20230;-87
2021/01/31 05:13:12;;;;;;;11.07;7.07;;;3.30;99.90;;;;;;5111986;28;20196;-88
2021/01/31 05:15:44;;;;;;;8.60;6.38;;;3.30;99.90;;;;;;5116234;28;20231;-88
2021/01/31 05:18:14;;;;;;;13.32;7.38;;;3.30;99.90;;;;;;5112393;28;20228;-87
2021/01/31 05:20:44;;;;;;;7.72;6.07;;;3.30;99.90;;;;;;5114960;28;20637;-88
2021/01/31 05:23:11;;;;;;;7.70;5.78;;;3.30;99.90;;;;;;5110406;28;20659;-87
2021/01/31 05:25:38;;;;;;;7.55;6.35;;;3.30;99.90;;;;;;5108798;28;20671;-87
2021/01/31 05:28:06;;;;;;;7.35;5.50;;;3.30;99.90;;;;;;5115837;28;20283;-88
2021/01/31 05:30:40;;;;;;;7.93;5.60;;;3.20;99.90;;;;;;5116638;28;20196;-89
2021/01/31 05:33:11;;;;;;;9.00;7.03;;;3.20;99.90;;;;;;5118218;28;20204;-88
2021/01/31 05:35:43;;;;;;;8.55;7.22;;;3.30;99.90;;;;;;5115930;28;20200;-88
2021/01/31 05:38:12;;;;;;;8.65;6.85;;;3.30;99.90;;;;;;5125859;28;20207;-87
2021/01/31 05:40:44;;;;;;;8.07;6.43;;;3.30;99.90;;;;;;5136763;28;20210;-86
2021/01/31 05:43:16;;;;;;;10.07;6.65;;;3.40;99.90;;;;;;5126519;28;20196;-86
2021/01/31 05:45:44;;;;;;;9.95;7.78;;;3.40;99.90;;;;;;5122651;28;20318;-89
2021/01/31 05:48:34;;;;;;;10.98;6.45;;;3.40;99.90;;;;;;5139486;28;20199;-87
2021/01/31 05:51:13;;;;;;;14.55;7.88;;;3.30;99.90;;;;;;5138623;27;20196;-88
2021/01/31 05:53:40;;;;;;;9.70;6.25;;;3.30;99.90;;;;;;5131139;28;20263;-88
2021/01/31 05:56:23;;;;;;;8.98;6.32;;;3.30;99.90;;;;;;5123446;28;20279;-88
2021/01/31 05:58:52;;;;;;;8.07;6.63;;;3.30;99.90;;;;;;5111208;28;20283;-88
2021/01/31 06:01:18;;;;;;;7.07;5.78;;;3.50;99.90;;;;;;5114950;28;20227;-87
2021/01/31 06:03:45;;;;;;;6.28;5.43;;;3.50;99.90;;;;;;5114404;28;20200;-88
2021/01/31 06:06:22;;;;;;;7.95;6.00;;;3.50;99.90;;;;;;5111246;28;20581;-92
2021/01/31 06:08:50;;;;;;;10.15;6.30;;;3.50;99.90;;;;;;5114917;28;20290;-89
2021/01/31 06:11:23;;;;;;;7.28;6.10;;;3.50;99.90;;;;;;5116240;28;20643;-87
2021/01/31 06:14:02;;;;;;;7.40;5.05;;;3.50;99.90;;;;;;5116650;28;20208;-89
2021/01/31 06:16:29;;;;;;;6.70;4.97;;;3.50;99.90;;;;;;5114205;28;20337;-88
2021/01/31 06:19:00;;;;;;;7.32;5.95;;;3.40;99.90;;;;;;5114415;28;20291;-88
2021/01/31 06:21:37;;;;;;;8.15;6.25;;;3.50;99.90;;;;;;5112990;28;20216;-88
2021/01/31 06:24:04;;;;;;;11.05;6.35;;;3.50;99.90;;;;;;5114267;28;20227;-91
2021/01/31 06:26:38;;;;;;;10.52;6.35;;;3.50;99.90;;;;;;5108486;28;20291;-89
2021/01/31 06:29:12;;;;;;;10.80;7.47;;;3.60;99.90;;;;;;5113838;28;20290;-86
2021/01/31 06:31:43;;;;;;;10.10;6.53;;;3.60;99.90;;;;;;5113819;28;20640;-88
2021/01/31 06:34:11;;;;;;;13.18;8.27;;;3.50;99.90;;;;;;5114381;28;20319;-87
2021/01/31 06:36:50;;;;;;;8.80;6.32;;;3.50;99.90;;;;;;5111649;28;20655;-88
2021/01/31 06:39:34;;;;;;;9.55;7.10;;;3.50;99.90;;;;;;5113837;28;20490;-88
2021/01/31 06:42:17;;;;;;;8.38;6.03;;;3.50;99.90;;;;;;5114238;28;20200;-88
2021/01/31 06:45:00;;;;;;;9.15;6.00;;;3.30;99.90;;;;;;5111379;28;20228;-87
2021/01/31 06:47:59;;;;;;;11.45;6.95;;;3.40;99.90;;;;;;5109719;28;20678;-86
2021/01/31 06:50:34;;;;;;;9.88;6.40;;;3.40;99.90;;;;;;5109665;28;20223;-89
2021/01/31 06:53:17;;;;;;;9.23;6.43;;;3.40;99.90;;;;;;5112965;28;20318;-87
2021/01/31 06:56:17;;;;;;;7.40;5.60;;;3.40;99.90;;;;;;5114684;28;20298;-88
2021/01/31 06:59:07;;;;;;;8.18;6.65;;;3.40;99.90;;;;;;5081768;28;20291;-88
2021/01/31 07:01:46;;;;;;;6.32;5.50;;;3.40;99.90;;;;;;5121845;28;20267;-89
2021/01/31 07:04:28;;;;;;;7.80;7.00;;;3.50;99.90;;;;;;5137421;28;20218;-87
2021/01/31 07:07:27;;;;;;;12.82;7.50;;;3.50;99.90;;;;;;5137231;28;20184;-88
2021/01/31 07:10:32;;;;;;;12.88;7.40;;;3.50;99.90;;;;;;5104521;28;20196;-88
2021/01/31 07:13:09;;;;;;;10.43;8.10;;;3.50;99.90;;;;;;5114426;28;20565;-87
2021/01/31 07:15:42;;;;;;;10.38;7.40;;;3.50;99.90;;;;;;5114189;28;20573;-88
2021/01/31 07:18:14;;;;;;;7.07;5.85;;;3.50;99.90;;;;;;5114029;28;20287;-88
2021/01/31 07:20:46;;;;;;;9.40;6.97;;;3.50;99.90;;;;;;5109925;28;20295;-87
2021/01/31 07:23:18;;;;;;;9.38;6.63;;;3.60;99.90;;;;;;5113222;28;20291;-88
2021/01/31 07:25:48;;;;;;;10.50;7.93;;;3.60;99.90;;;;;;5113449;28;20758;-88
2021/01/31 07:28:20;;;;;;;8.10;6.22;;;3.50;99.90;;;;;;5113031;28;20407;-87
2021/01/31 07:30:58;;;;;;;6.70;6.00;;;3.50;99.90;;;;;;5113490;28;20269;-87
2021/01/31 07:33:31;;;;;;;8.20;6.93;;;3.60;99.90;;;;;;5113797;28;20727;-87
2021/01/31 07:36:04;;;;;;;8.75;6.20;;;3.60;99.90;;;;;;5112974;28;20349;-90
2021/01/31 07:38:37;;;;;;;9.00;6.65;;;3.70;99.90;;;;;;5113264;28;20294;-88
2021/01/31 07:41:05;;;;;;;6.68;5.72;;;3.70;99.90;;;;;;5113556;28;20291;-87
2021/01/31 07:43:36;;;;;;;6.70;5.95;;;3.80;99.90;;;;;;5112989;28;20204;-88
2021/01/31 07:46:06;;;;;;;6.93;5.80;;;3.80;99.90;;;;;;5113066;28;20244;-88
2021/01/31 07:48:57;;;;;;;9.30;5.60;;;3.90;99.90;;;;;;5116680;28;20200;-88
2021/01/31 07:51:59;;;;;;;7.97;7.18;;;4.00;99.90;;;;;;5115749;28;20209;-87
2021/01/31 07:54:28;;;;;;;7.97;6.20;;;3.80;99.90;;;;;;5117309;28;20322;-86
2021/01/31 07:56:56;;;;;;;9.35;5.10;;;3.90;99.90;;;;;;5116945;28;20264;-87
2021/01/31 07:59:26;;;;;;;7.00;5.70;;;3.90;99.90;;;;;;5116873;28;20242;-86
2021/01/31 08:01:54;;;;;;;8.27;6.60;;;3.90;99.90;;;;;;5111326;28;20207;-87
2021/01/31 08:04:44;;;;;;;6.70;5.50;;;3.90;99.90;;;;;;5113407;28;20236;-87
2021/01/31 08:07:18;;;;;;;8.07;5.30;;;4.00;99.90;;;;;;5116024;28;20225;-88
2021/01/31 08:10:06;;;;;;;16.27;9.68;;;4.00;99.90;;;;;;5116266;28;20274;-89
2021/01/31 08:12:59;;;;;;;4.72;3.95;;;4.00;99.90;;;;;;5073758;28;20223;-85
2021/01/31 08:15:41;;;;;;;5.63;4.95;;;4.00;99.90;;;;;;5114356;28;20200;-90
2021/01/31 08:18:18;;;;;;;5.40;4.90;;;4.00;99.90;;;;;;5117317;28;20284;-81
2021/01/31 08:20:47;;;;;;;5.95;5.28;;;4.10;99.90;;;;;;5114640;28;20281;-80
2021/01/31 08:23:46;;;;;;;7.13;6.05;;;4.20;99.90;;;;;;5115701;28;20196;-81
2021/01/31 08:26:37;;;;;;;6.75;4.85;;;4.30;99.90;;;;;;5115696;28;20291;-81
2021/01/31 08:29:04;;;;;;;6.28;5.65;;;4.40;99.90;;;;;;5115862;28;20303;-80
2021/01/31 08:31:30;;;;;;;6.25;5.40;;;4.60;99.90;;;;;;5116304;28;20200;-83
2021/01/31 08:34:03;;;;;;;5.78;5.20;;;4.70;99.90;;;;;;5116654;28;20299;-83
2021/01/31 08:36:31;;;;;;;6.95;5.30;;;4.60;99.90;;;;;;5115227;28;20670;-84
2021/01/31 08:38:59;;;;;;;6.22;5.50;;;4.40;99.90;;;;;;5116929;28;20208;-83
2021/01/31 08:41:43;;;;;;;7.60;5.90;;;4.40;99.90;;;;;;5113385;28;20205;-84
2021/01/31 08:44:39;;;;;;;8.40;5.45;;;4.30;99.90;;;;;;5116462;28;20307;-84
2021/01/31 08:47:07;;;;;;;5.90;5.00;;;4.40;99.90;;;;;;5111690;28;20204;-85
2021/01/31 08:49:34;;;;;;;6.07;5.47;;;4.50;99.90;;;;;;5117316;28;20253;-85
2021/01/31 08:52:05;;;;;;;6.05;5.05;;;4.50;99.90;;;;;;5115200;28;20243;-87
2021/01/31 08:54:31;;;;;;;8.40;5.40;;;4.50;99.90;;;;;;5116183;28;20240;-83
2021/01/31 08:57:00;;;;;;;7.18;5.65;;;4.50;99.90;;;;;;5115762;28;20295;-85
2021/01/31 08:59:29;;;;;;;6.50;5.70;;;4.70;99.90;;;;;;5115587;28;20601;-84
2021/01/31 09:02:03;;;;;;;6.18;5.47;;;4.70;99.90;;;;;;5116288;28;20699;-84
2021/01/31 09:04:30;;;;;;;5.85;5.30;;;4.50;99.90;;;;;;5107604;28;20232;-84
2021/01/31 09:07:02;;;;;;;8.57;6.38;;;4.40;99.90;;;;;;5119466;28;20232;-87
2021/01/31 09:09:31;;;;;;;7.53;5.78;;;4.40;99.90;;;;;;5116866;28;20200;-83
2021/01/31 09:12:00;;;;;;;6.78;6.10;;;4.50;99.90;;;;;;5108234;28;20764;-84
2021/01/31 09:14:30;;;;;;;8.32;5.68;;;4.60;99.90;;;;;;5116903;28;20298;-84
2021/01/31 09:17:03;;;;;;;7.10;6.28;;;4.60;99.90;;;;;;5115388;28;20431;-83
2021/01/31 09:19:31;;;;;;;8.20;6.40;;;4.50;99.90;;;;;;5115028;28;20394;-84
2021/01/31 09:22:05;;;;;;;6.80;5.78;;;4.60;99.90;;;;;;5113701;28;20302;-84
2021/01/31 09:24:34;;;;;;;6.72;5.82;;;4.60;99.90;;;;;;5113955;28;20362;-88
2021/01/31 09:27:01;;;;;;;7.93;6.63;;;4.80;99.90;;;;;;5107328;28;20235;-83
2021/01/31 09:29:30;;;;;;;7.35;5.78;;;4.80;99.90;;;;;;5114657;28;20204;-83
2021/01/31 09:32:02;;;;;;;6.55;5.80;;;4.70;99.90;;;;;;5111498;28;20208;-83
2021/01/31 09:34:29;;;;;;;7.57;6.32;;;4.60;99.90;;;;;;5114305;28;20207;-83
2021/01/31 09:37:08;;;;;;;7.10;5.68;;;4.60;99.90;;;;;;5113230;28;20341;-83
2021/01/31 09:39:36;;;;;;;8.07;7.07;;;4.60;99.90;;;;;;5114655;28;20220;-83
2021/01/31 09:42:04;;;;;;;5.78;4.95;;;4.60;99.90;;;;;;5115215;28;20233;-88
2021/01/31 09:44:33;;;;;;;9.40;6.50;;;4.60;99.90;;;;;;5116567;28;20235;-83
2021/01/31 09:47:00;;;;;;;7.47;6.15;;;4.60;99.90;;;;;;5114751;28;20206;-83
2021/01/31 09:49:28;;;;;;;7.53;6.13;;;4.50;99.90;;;;;;5117333;28;20250;-84
2021/01/31 09:52:05;;;;;;;7.75;5.70;;;4.50;99.90;;;;;;5133936;28;20196;-83
2021/01/31 09:54:33;;;;;;;7.82;6.15;;;4.40;99.90;;;;;;5127814;28;20280;-83
2021/01/31 09:57:02;;;;;;;9.57;7.57;;;4.50;99.90;;;;;;5116628;28;20204;-84
2021/01/31 09:59:32;;;;;;;8.23;6.30;;;4.50;99.90;;;;;;5072186;28;20202;-83
2021/01/31 10:02:03;;;;;;;8.00;6.20;;;4.60;99.90;;;;;;5069974;28;20205;-83
2021/01/31 10:04:31;;;;;;;9.23;7.53;;;4.60;99.90;;;;;;5062315;28;20321;-83
2021/01/31 10:07:05;;;;;;;8.27;6.15;;;4.70;99.90;;;;;;5045214;28;20206;-83
2021/01/31 10:09:37;;;;;;;8.13;7.13;;;4.80;99.90;;;;;;5051772;28;20823;-83
2021/01/31 10:12:25;;;;;;;7.28;6.40;;;4.80;99.90;;;;;;5050426;28;20263;-82
2021/01/31 10:14:54;;;;;;;9.48;7.40;;;4.80;99.90;;;;;;5051316;28;20234;-82
2021/01/31 10:17:31;;;;;;;7.53;5.90;;;4.80;99.90;;;;;;5051198;28;20285;-83
2021/01/31 10:20:26;;;;;;;6.32;5.35;;;4.90;99.90;;;;;;5049975;28;20304;-85
2021/01/31 10:22:53;;;;;;;8.45;6.75;;;4.80;99.90;;;;;;5050746;28;20233;-82
2021/01/31 10:25:20;;;;;;;8.57;6.95;;;4.70;99.90;;;;;;5114001;28;20663;-83
2021/01/31 10:27:49;;;;;;;10.05;6.35;;;4.80;99.90;;;;;;5113540;28;20390;-83
2021/01/31 10:30:22;;;;;;;8.85;7.65;;;4.80;99.90;;;;;;5113963;28;20200;-84
2021/01/31 10:32:50;;;;;;;11.07;7.03;;;5.10;99.90;;;;;;5113867;28;20282;-84
2021/01/31 10:35:28;;;;;;;7.93;6.60;;;5.20;99.90;;;;;;5112523;28;20200;-84
2021/01/31 10:37:56;;;;;;;7.75;5.95;;;5.30;99.90;;;;;;5108225;28;20250;-85
2021/01/31 10:40:24;;;;;;;8.38;6.70;;;5.20;99.90;;;;;;5108480;28;20353;-83
2021/01/31 10:42:51;;;;;;;11.30;8.23;;;5.40;99.90;;;;;;5113407;28;20693;-83
2021/01/31 10:45:20;;;;;;;8.60;6.53;;;5.50;99.90;;;;;;5113798;28;20239;-85
2021/01/31 10:47:48;;;;;;;7.40;6.55;;;5.50;99.90;;;;;;5113184;28;20203;-84
2021/01/31 10:50:15;;;;;;;9.15;6.32;;;5.50;99.90;;;;;;5112543;28;20208;-84
2021/01/31 10:52:42;;;;;;;8.32;6.38;;;5.60;99.90;;;;;;5109546;28;20657;-87
2021/01/31 10:55:10;;;;;;;8.43;6.60;;;5.40;99.90;;;;;;5110646;28;20312;-90
2021/01/31 10:57:37;;;;;;;9.43;7.38;;;5.40;99.90;;;;;;5114510;28;20296;-84
2021/01/31 11:00:07;;;;;;;7.60;6.72;;;5.30;99.90;;;;;;5108120;28;20283;-83
2021/01/31 11:02:33;;;;;;;6.45;5.75;;;5.30;99.90;;;;;;5113184;28;20232;-84
2021/01/31 11:05:00;;;;;;;7.28;6.03;;;5.20;99.90;;;;;;5108750;28;20228;-84
2021/01/31 11:07:26;;;;;;;7.85;7.05;;;5.30;99.90;;;;;;5113433;28;20619;-85
2021/01/31 11:09:53;;;;;;;9.75;7.60;;;5.40;99.90;;;;;;5113141;28;20272;-87
2021/01/31 11:12:20;;;;;;;8.00;6.20;;;5.30;99.90;;;;;;5113268;28;20291;-84
2021/01/31 11:14:47;;;;;;;10.18;7.00;;;5.20;99.90;;;;;;5113322;28;20203;-84
2021/01/31 11:17:13;;;;;;;8.80;6.53;;;5.30;99.90;;;;;;5110386;28;20208;-78
2021/01/31 11:19:40;;;;;;;10.38;7.72;;;5.50;99.90;;;;;;5112850;28;20352;-83
2021/01/31 11:22:08;;;;;;;7.80;6.32;;;6.20;99.90;;;;;;5112994;28;20211;-83
2021/01/31 11:24:35;;;;;;;10.15;8.52;;;5.90;99.90;;;;;;5117006;28;20238;-86
2021/01/31 11:27:01;;;;;;;10.57;8.13;;;5.80;99.90;;;;;;5113881;28;20294;-84
2021/01/31 11:29:28;;;;;;;8.95;7.25;;;6.00;99.90;;;;;;5116900;28;20672;-84
2021/01/31 11:31:55;;;;;;;9.45;7.10;;;5.90;99.90;;;;;;5120077;28;20283;-92
2021/01/31 11:34:22;;;;;;;6.60;5.90;;;6.10;99.90;;;;;;5117258;28;20299;-86
2021/01/31 11:36:48;;;;;;;8.55;7.50;;;6.40;99.90;;;;;;5115738;28;20243;-82
2021/01/31 11:39:15;;;;;;;801.00;440.85;;;6.50;99.90;;;;;;5116496;28;20200;-76
2021/01/31 11:41:41;;;;;;;38.93;25.23;;;6.70;99.90;;;;;;5116231;28;20287;-76
2021/01/31 11:44:09;;;;;;;42.07;25.33;;;6.90;99.90;;;;;;5116485;28;20833;-76
2021/01/31 11:46:36;;;;;;;13.37;9.57;;;6.70;99.90;;;;;;5116885;28;20529;-84
2021/01/31 11:49:04;;;;;;;8.87;7.97;;;6.80;99.90;;;;;;5116624;28;20541;-88
2021/01/31 11:51:31;;;;;;;7.40;6.13;;;6.50;99.90;;;;;;5115435;28;20450;-84
2021/01/31 11:53:57;;;;;;;29.43;18.20;;;6.40;99.90;;;;;;5116423;28;20917;-85
2021/01/31 11:56:24;;;;;;;8.30;7.15;;;6.50;99.90;;;;;;5116595;28;20537;-83
2021/01/31 11:58:51;;;;;;;8.00;7.20;;;6.50;99.90;;;;;;5116066;28;20261;-85
2021/01/31 12:01:18;;;;;;;8.10;6.13;;;6.50;99.90;;;;;;5116403;28;20942;-83
2021/01/31 12:03:45;;;;;;;8.17;5.60;;;6.60;99.90;;;;;;5116160;28;20461;-83
2021/01/31 12:06:13;;;;;;;7.33;6.33;;;6.60;99.90;;;;;;5115095;28;20953;-84
2021/01/31 12:08:40;;;;;;;8.30;6.40;;;6.50;99.90;;;;;;5116684;28;20454;-84
2021/01/31 12:11:07;;;;;;;8.37;6.47;;;6.40;99.90;;;;;;5116318;28;21076;-83
2021/01/31 12:13:33;;;;;;;9.30;6.13;;;6.50;99.90;;;;;;5116068;28;20481;-84
2021/01/31 12:16:02;;;;;;;8.00;6.27;;;6.50;99.90;;;;;;5079540;28;20450;-83
2021/01/31 12:18:28;;;;;;;8.03;7.23;;;6.70;99.90;;;;;;5115922;28;20460;-82
2021/01/31 12:20:55;;;;;;;9.33;5.60;;;6.70;99.90;;;;;;5115479;28;20454;-83
2021/01/31 12:23:22;;;;;;;8.53;7.10;;;6.80;99.90;;;;;;5116313;28;20528;-82
2021/01/31 12:25:48;;;;;;;8.57;6.90;;;6.90;99.90;;;;;;5116510;28;20493;-87
2021/01/31 12:28:16;;;;;;;10.27;6.77;;;6.90;99.90;;;;;;5116929;28;20454;-83
2021/01/31 12:30:42;;;;;;;11.27;7.03;;;7.00;99.90;;;;;;5112739;28;20442;-83
2021/01/31 12:33:10;;;;;;;7.00;6.10;;;7.00;99.90;;;;;;5079151;28;20542;-82
2021/01/31 12:35:36;;;;;;;9.00;6.23;;;7.10;99.90;;;;;;5114196;28;20521;-82
2021/01/31 12:38:03;;;;;;;8.50;6.00;;;6.90;99.90;;;;;;5115463;28;20450;-83
2021/01/31 12:40:31;;;;;;;8.83;6.27;;;6.70;99.90;;;;;;5115364;28;20477;-82
2021/01/31 12:42:58;;;;;;;7.60;5.97;;;6.70;99.90;;;;;;5115015;28;20553;-81
2021/01/31 12:45:28;;;;;;;6.90;5.80;;;6.80;99.90;;;;;;5115421;28;20529;-82
2021/01/31 12:47:54;;;;;;;8.17;6.40;;;6.90;99.90;;;;;;5114974;28;20940;-81
2021/01/31 12:50:23;;;;;;;9.30;6.90;;;6.90;99.90;;;;;;5113665;28;20536;-82
2021/01/31 12:52:49;;;;;;;9.83;5.67;;;6.80;99.90;;;;;;5114827;28;20503;-81
2021/01/31 12:55:16;;;;;;;8.10;7.07;;;6.60;99.90;;;;;;5114668;28;21011;-82
2021/01/31 12:57:43;;;;;;;9.67;6.67;;;6.50;99.90;;;;;;5114858;28;20450;-82
2021/01/31 13:00:13;;;;;;;10.40;7.00;;;6.60;99.90;;;;;;5115152;28;20868;-82
2021/01/31 13:02:40;;;;;;;10.33;6.80;;;6.50;99.90;;;;;;5114179;28;20480;-83
2021/01/31 13:05:08;;;;;;;9.05;6.70;;;6.20;99.90;;;;;;5113736;28;20603;-82
2021/01/31 13:07:36;;;;;;;7.88;6.03;;;6.20;99.90;;;;;;5114391;28;20200;-82
2021/01/31 13:10:04;;;;;;;8.00;6.10;;;6.10;99.90;;;;;;5114901;28;20239;-82
2021/01/31 13:12:30;;;;;;;9.70;6.50;;;6.10;99.90;;;;;;5110239;28;20235;-82
2021/01/31 13:14:58;;;;;;;8.77;6.07;;;6.00;99.90;;;;;;5111810;28;20442;-81
2021/01/31 13:17:24;;;;;;;10.30;7.00;;;6.00;99.90;;;;;;5114483;28;20675;-81